Time;durP1;ratioP1;P1;durP2;ratioP2;P2;SDS_P1;SDS_P2;PMS_P1;PMS_P2;Temp;Humidity;BMP_temperature;BMP_pressure;BME280_temperature;BME280_humidity;BME280_pressure;Samples;Min_cycle;Max_cycle;Signal;HPM_P1;HPM_P2
2022/05/05 00:00:11;;;;;;;10.80;6.25;;;;;;;;;;5014190;28;20046;-65
2022/05/05 00:02:37;;;;;;;11.73;5.63;;;;;;;;;;5013516;28;20374;-65
2022/05/05 00:05:04;;;;;;;10.98;5.35;;;;;;;;;;5013956;28;20050;-65
2022/05/05 00:07:30;;;;;;;14.10;6.60;;;;;;;;;;5014487;28;20196;-65
2022/05/05 00:09:56;;;;;;;14.88;6.50;;;;;;;;;;5013393;28;20084;-65
2022/05/05 00:15:07;;;;;;;11.43;5.78;;;;;;;;;;5014114;28;20065;-65
2022/05/05 00:17:34;;;;;;;13.68;6.97;;;;;;;;;;5013377;28;20531;-65
2022/05/05 00:20:00;;;;;;;13.68;6.55;;;;;;;;;;5014119;28;20061;-65
2022/05/05 00:22:27;;;;;;;11.38;5.90;;;;;;;;;;5013786;28;20045;-65
2022/05/05 00:24:53;;;;;;;13.43;5.40;;;;;;;;;;5012965;28;20037;-65
2022/05/05 00:27:19;;;;;;;12.98;5.63;;;;;;;;;;5012135;28;20084;-65
2022/05/05 00:29:45;;;;;;;11.88;6.10;;;;;;;;;;5013542;28;20056;-65
2022/05/05 00:32:11;;;;;;;12.50;6.25;;;;;;;;;;5013262;28;20046;-65
2022/05/05 00:34:38;;;;;;;11.80;5.90;;;;;;;;;;5012240;28;20133;-65
2022/05/05 00:37:04;;;;;;;9.15;5.68;;;;;;;;;;5013744;28;20489;-65
2022/05/05 00:39:30;;;;;;;12.57;5.93;;;;;;;;;;5012864;28;20124;-65
2022/05/05 00:41:59;;;;;;;12.00;5.60;;;;;;;;;;5013552;28;20397;-65
2022/05/05 00:44:25;;;;;;;11.63;5.07;;;;;;;;;;5013639;28;20053;-65
2022/05/05 00:46:51;;;;;;;10.52;5.60;;;;;;;;;;5012794;28;20546;-65
2022/05/05 00:49:18;;;;;;;12.45;6.00;;;;;;;;;;5013467;28;20077;-65
2022/05/05 00:51:45;;;;;;;14.48;5.45;;;;;;;;;;5013533;28;20046;-65
2022/05/05 00:54:11;;;;;;;10.40;4.80;;;;;;;;;;5012752;28;20045;-65
2022/05/05 00:56:38;;;;;;;9.55;5.07;;;;;;;;;;5013481;28;20045;-65
2022/05/05 00:59:05;;;;;;;11.00;6.05;;;;;;;;;;5012816;28;20416;-65
2022/05/05 01:01:31;;;;;;;9.63;5.13;;;;;;;;;;5012275;28;20385;-65
2022/05/05 01:03:58;;;;;;;12.43;5.97;;;;;;;;;;5013179;28;20048;-65
2022/05/05 01:06:24;;;;;;;12.85;5.70;;;;;;;;;;5011451;28;20064;-65
2022/05/05 01:08:50;;;;;;;8.10;4.65;;;;;;;;;;5012464;28;20457;-65
2022/05/05 01:11:16;;;;;;;14.02;6.20;;;;;;;;;;5013018;28;20683;-65
2022/05/05 01:13:43;;;;;;;9.82;5.45;;;;;;;;;;5012877;28;20053;-65
2022/05/05 01:16:09;;;;;;;13.40;5.30;;;;;;;;;;5012511;28;20041;-65
2022/05/05 01:18:35;;;;;;;12.23;5.50;;;;;;;;;;5012834;28;20049;-65
2022/05/05 01:21:02;;;;;;;12.00;5.75;;;;;;;;;;5013071;28;20045;-65
2022/05/05 01:23:29;;;;;;;8.90;5.00;;;;;;;;;;5011876;28;20053;-65
2022/05/05 01:28:43;;;;;;;15.10;5.57;;;;;;;;;;5012699;28;20046;-65
2022/05/05 01:31:09;;;;;;;13.60;6.25;;;;;;;;;;5011769;28;20033;-65
2022/05/05 01:33:35;;;;;;;14.32;5.15;;;;;;;;;;5012584;28;20042;-65
2022/05/05 01:36:01;;;;;;;13.52;5.13;;;;;;;;;;5012365;28;20220;-65
2022/05/05 01:38:35;;;;;;;16.55;5.85;;;;;;;;;;5011728;28;20042;-65
2022/05/05 01:41:03;;;;;;;7.88;5.00;;;;;;;;;;5011741;28;20042;-65
2022/05/05 01:43:29;;;;;;;12.82;5.72;;;;;;;;;;5012243;28;20050;-65
2022/05/05 01:45:55;;;;;;;11.55;5.55;;;;;;;;;;5011307;28;20049;-65
2022/05/05 01:48:21;;;;;;;11.45;6.03;;;;;;;;;;5012267;28;20057;-65
2022/05/05 01:50:48;;;;;;;10.43;6.30;;;;;;;;;;5012336;28;20048;-65
2022/05/05 01:53:14;;;;;;;14.15;5.38;;;;;;;;;;5011747;28;20191;-65
2022/05/05 01:55:41;;;;;;;10.98;5.50;;;;;;;;;;5012192;28;20104;-65
2022/05/05 01:58:07;;;;;;;7.40;5.00;;;;;;;;;;5012058;28;20049;-65
2022/05/05 02:00:33;;;;;;;14.35;6.13;;;;;;;;;;5011539;28;20089;-65
2022/05/05 02:02:59;;;;;;;9.98;5.70;;;;;;;;;;5011994;28;20096;-65
2022/05/05 02:05:26;;;;;;;13.95;6.68;;;;;;;;;;5011785;28;20076;-65
2022/05/05 02:07:53;;;;;;;13.57;6.20;;;;;;;;;;5011355;28;20045;-65
2022/05/05 02:10:20;;;;;;;11.18;6.25;;;;;;;;;;5012116;28;20133;-65
2022/05/05 02:12:46;;;;;;;13.82;6.47;;;;;;;;;;5012232;28;20034;-65
2022/05/05 02:15:13;;;;;;;10.68;5.90;;;;;;;;;;5011070;28;20499;-65
2022/05/05 02:17:40;;;;;;;10.98;5.65;;;;;;;;;;5011886;28;20037;-65
2022/05/05 02:20:07;;;;;;;10.13;5.85;;;;;;;;;;5011693;28;20038;-65
2022/05/05 02:22:33;;;;;;;9.88;6.03;;;;;;;;;;5011101;28;20037;-65
2022/05/05 02:25:00;;;;;;;15.07;6.85;;;;;;;;;;5011942;28;20038;-65
2022/05/05 02:27:26;;;;;;;10.30;5.97;;;;;;;;;;5011624;28;20455;-65
2022/05/05 02:29:53;;;;;;;13.07;6.63;;;;;;;;;;5011026;28;20112;-65
2022/05/05 02:32:19;;;;;;;10.95;5.88;;;;;;;;;;5011714;28;20073;-65
2022/05/05 02:34:46;;;;;;;13.80;6.85;;;;;;;;;;5011643;28;20049;-65
2022/05/05 02:39:58;;;;;;;9.93;6.40;;;;;;;;;;5011751;28;20046;-66
2022/05/05 02:42:24;;;;;;;12.82;6.78;;;;;;;;;;5011525;28;20049;-65
2022/05/05 02:44:50;;;;;;;15.60;6.75;;;;;;;;;;5011141;28;20492;-65
2022/05/05 02:47:16;;;;;;;11.98;7.22;;;;;;;;;;5011590;28;20408;-65
2022/05/05 02:49:42;;;;;;;13.02;6.75;;;;;;;;;;5011157;28;20037;-65
2022/05/05 02:52:09;;;;;;;10.80;6.60;;;;;;;;;;5011184;28;20089;-65
2022/05/05 02:54:47;;;;;;;9.82;6.13;;;;;;;;;;5015411;28;20046;-65
2022/05/05 02:57:16;;;;;;;11.70;6.40;;;;;;;;;;5015420;28;20042;-65
2022/05/05 02:59:42;;;;;;;13.10;7.30;;;;;;;;;;5014652;28;20038;-65
2022/05/05 03:02:09;;;;;;;13.65;6.90;;;;;;;;;;5015561;28;20542;-65
2022/05/05 03:04:35;;;;;;;12.18;7.00;;;;;;;;;;5015220;28;20042;-65
2022/05/05 03:07:01;;;;;;;16.05;7.35;;;;;;;;;;5014170;28;20532;-65
2022/05/05 03:09:27;;;;;;;12.77;7.38;;;;;;;;;;5015398;28;20061;-65
2022/05/05 03:11:53;;;;;;;13.20;7.40;;;;;;;;;;5015319;28;20480;-65
2022/05/05 03:14:19;;;;;;;12.85;7.32;;;;;;;;;;5014469;28;20049;-65
2022/05/05 03:16:45;;;;;;;21.42;7.95;;;;;;;;;;5015367;28;20042;-65
2022/05/05 03:19:11;;;;;;;12.55;7.55;;;;;;;;;;5015061;28;20117;-65
2022/05/05 03:21:38;;;;;;;12.85;7.05;;;;;;;;;;5014767;28;20465;-65
2022/05/05 03:24:04;;;;;;;13.43;7.70;;;;;;;;;;5014878;28;20034;-65
2022/05/05 03:26:31;;;;;;;13.23;8.38;;;;;;;;;;5014481;28;20049;-65
2022/05/05 03:28:57;;;;;;;11.50;7.43;;;;;;;;;;5014491;28;20125;-65
2022/05/05 03:31:23;;;;;;;15.40;7.88;;;;;;;;;;5014892;28;20114;-65
2022/05/05 03:33:50;;;;;;;14.80;7.90;;;;;;;;;;5014773;28;20049;-65
2022/05/05 03:36:16;;;;;;;19.63;8.25;;;;;;;;;;5014321;28;20030;-65
2022/05/05 03:38:42;;;;;;;16.58;8.40;;;;;;;;;;5014736;28;20065;-65
2022/05/05 03:41:08;;;;;;;17.00;7.95;;;;;;;;;;5014871;28;20046;-65
2022/05/05 03:43:34;;;;;;;14.38;8.70;;;;;;;;;;5013713;28;20125;-65
2022/05/05 03:46:00;;;;;;;18.10;8.45;;;;;;;;;;5014670;28;20045;-65
2022/05/05 03:48:26;;;;;;;15.07;9.23;;;;;;;;;;5014612;28;20050;-65
2022/05/05 03:50:53;;;;;;;16.45;8.25;;;;;;;;;;5013976;28;20380;-65
2022/05/05 03:53:19;;;;;;;16.95;8.30;;;;;;;;;;5014315;28;20132;-65
2022/05/05 03:55:45;;;;;;;12.77;8.23;;;;;;;;;;5014364;28;20034;-65
2022/05/05 03:58:11;;;;;;;10.27;8.18;;;;;;;;;;5013743;28;20042;-65
2022/05/05 04:00:37;;;;;;;16.90;8.90;;;;;;;;;;5014386;28;20097;-65
2022/05/05 04:05:48;;;;;;;15.15;8.70;;;;;;;;;;5012757;28;20062;-65
2022/05/05 04:08:14;;;;;;;15.55;9.55;;;;;;;;;;5013988;28;20050;-65
2022/05/05 04:10:40;;;;;;;14.20;9.43;;;;;;;;;;5014306;28;20033;-65
2022/05/05 04:13:06;;;;;;;19.25;9.25;;;;;;;;;;5013546;28;20520;-65
2022/05/05 04:15:33;;;;;;;16.27;8.68;;;;;;;;;;5014195;28;20034;-65
2022/05/05 04:18:00;;;;;;;18.40;9.07;;;;;;;;;;5014224;28;20077;-65
2022/05/05 04:20:26;;;;;;;18.90;9.98;;;;;;;;;;5013514;28;20049;-65
2022/05/05 04:22:52;;;;;;;15.63;9.77;;;;;;;;;;5012593;28;20049;-65
2022/05/05 04:25:18;;;;;;;18.15;9.98;;;;;;;;;;5013792;28;20050;-65
2022/05/05 04:27:46;;;;;;;16.10;9.63;;;;;;;;;;5012911;28;20037;-65
2022/05/05 04:30:14;;;;;;;15.27;9.95;;;;;;;;;;5013769;28;20627;-65
2022/05/05 04:32:40;;;;;;;18.33;10.13;;;;;;;;;;5013654;28;20041;-65
2022/05/05 04:35:06;;;;;;;17.23;9.98;;;;;;;;;;5012944;28;20534;-65
2022/05/05 04:37:33;;;;;;;16.00;9.73;;;;;;;;;;5013632;28;20038;-65
2022/05/05 04:39:59;;;;;;;15.65;9.93;;;;;;;;;;5013038;28;20041;-65
2022/05/05 04:42:25;;;;;;;17.02;9.45;;;;;;;;;;5012338;28;20128;-65
2022/05/05 04:44:52;;;;;;;19.05;10.10;;;;;;;;;;5013542;28;20049;-65
2022/05/05 04:47:18;;;;;;;14.48;9.48;;;;;;;;;;5013254;28;20056;-65
2022/05/05 04:49:44;;;;;;;17.13;9.80;;;;;;;;;;5012533;28;20049;-65
2022/05/05 04:52:10;;;;;;;14.38;9.75;;;;;;;;;;5013300;28;20074;-65
2022/05/05 04:54:36;;;;;;;13.88;10.68;;;;;;;;;;5013178;28;20049;-65
2022/05/05 04:57:03;;;;;;;19.25;10.48;;;;;;;;;;5012737;28;20034;-65
2022/05/05 04:59:29;;;;;;;21.75;10.25;;;;;;;;;;5012538;28;20041;-65
2022/05/05 05:01:55;;;;;;;15.20;9.70;;;;;;;;;;5011500;28;20334;-65
2022/05/05 05:04:21;;;;;;;16.75;10.30;;;;;;;;;;5010639;28;20049;-65
2022/05/05 05:06:47;;;;;;;15.77;9.80;;;;;;;;;;5011243;28;20108;-65
2022/05/05 05:09:13;;;;;;;15.30;9.13;;;;;;;;;;5011441;28;20480;-65
2022/05/05 05:11:39;;;;;;;17.25;10.43;;;;;;;;;;5011419;28;20440;-65
2022/05/05 05:14:05;;;;;;;15.20;9.48;;;;;;;;;;5011665;28;20038;-65
2022/05/05 05:16:31;;;;;;;13.32;9.43;;;;;;;;;;4991013;28;20050;-65
2022/05/05 05:18:58;;;;;;;19.67;10.18;;;;;;;;;;4998562;28;20038;-65
2022/05/05 05:21:24;;;;;;;19.77;9.20;;;;;;;;;;5010711;28;20042;-64
2022/05/05 05:23:50;;;;;;;17.58;9.77;;;;;;;;;;5011371;28;20049;-64
2022/05/05 05:26:16;;;;;;;15.77;9.27;;;;;;;;;;5011260;28;20672;-64
2022/05/05 05:28:42;;;;;;;71.35;18.73;;;;;;;;;;5010688;28;20049;-65
2022/05/05 05:31:08;;;;;;;23.85;11.48;;;;;;;;;;5011058;28;20416;-64
2022/05/05 05:33:34;;;;;;;193.73;49.92;;;;;;;;;;5011351;28;20038;-65
2022/05/05 05:36:00;;;;;;;19.15;10.25;;;;;;;;;;5010383;28;20069;-65
2022/05/05 05:38:26;;;;;;;38.88;14.55;;;;;;;;;;5010710;28;20042;-64
2022/05/05 05:40:54;;;;;;;18.90;11.40;;;;;;;;;;5010998;28;20477;-64
2022/05/05 05:43:21;;;;;;;20.73;11.18;;;;;;;;;;5010030;28;20050;-64
2022/05/05 05:45:47;;;;;;;137.07;39.17;;;;;;;;;;5011143;28;20237;-64
2022/05/05 05:48:13;;;;;;;33.10;13.70;;;;;;;;;;5010634;28;20038;-64
2022/05/05 05:50:39;;;;;;;502.08;103.60;;;;;;;;;;5010215;28;20384;-64
2022/05/05 05:53:05;;;;;;;321.95;70.47;;;;;;;;;;5011052;28;20044;-64
2022/05/05 05:55:31;;;;;;;136.00;33.17;;;;;;;;;;5010596;28;20072;-64
2022/05/05 05:57:58;;;;;;;165.43;40.42;;;;;;;;;;5009435;28;20354;-64
2022/05/05 06:00:24;;;;;;;1682.63;168.00;;;;;;;;;;5010057;28;20040;-64
2022/05/05 06:05:34;;;;;;;21.60;14.20;;;;;;;;;;5010094;28;20087;-64
2022/05/05 06:08:01;;;;;;;25.95;14.38;;;;;;;;;;5010377;28;20046;-64
2022/05/05 06:10:27;;;;;;;22.67;12.60;;;;;;;;;;5010744;28;20077;-64
2022/05/05 06:12:53;;;;;;;24.42;13.82;;;;;;;;;;5009947;28;20045;-64
2022/05/05 06:15:20;;;;;;;21.55;13.38;;;;;;;;;;5010662;28;20427;-64
2022/05/05 06:17:46;;;;;;;23.40;12.05;;;;;;;;;;5010609;28;20037;-64
2022/05/05 06:20:12;;;;;;;19.92;12.65;;;;;;;;;;5009840;28;20089;-64
2022/05/05 06:22:38;;;;;;;1999.90;221.43;;;;;;;;;;5010269;28;20046;-65
2022/05/05 06:25:05;;;;;;;139.85;36.28;;;;;;;;;;5010094;28;20045;-64
2022/05/05 06:27:31;;;;;;;1991.00;256.52;;;;;;;;;;5007104;28;20077;-62
2022/05/05 06:29:57;;;;;;;147.18;43.30;;;;;;;;;;5009716;28;20081;-61
2022/05/05 06:32:23;;;;;;;362.50;82.57;;;;;;;;;;5010331;28;20088;-58
2022/05/05 06:34:48;;;;;;;562.08;132.13;;;;;;;;;;5009398;28;20050;-59
2022/05/05 06:37:15;;;;;;;55.63;24.45;;;;;;;;;;5009950;28;20365;-59
2022/05/05 06:39:41;;;;;;;47.40;21.00;;;;;;;;;;5009180;28;20104;-59
2022/05/05 06:42:07;;;;;;;28.70;17.63;;;;;;;;;;5007459;28;20071;-63
2022/05/05 06:44:33;;;;;;;31.13;17.42;;;;;;;;;;5007737;28;20672;-61
2022/05/05 06:46:59;;;;;;;33.72;17.35;;;;;;;;;;5008697;28;20052;-61
2022/05/05 06:49:26;;;;;;;28.67;18.17;;;;;;;;;;5009543;28;20038;-63
2022/05/05 06:51:52;;;;;;;24.50;15.82;;;;;;;;;;5010883;28;20049;-61
2022/05/05 06:54:18;;;;;;;34.33;17.15;;;;;;;;;;5009298;28;20048;-63
2022/05/05 06:56:44;;;;;;;24.08;13.90;;;;;;;;;;5010353;28;20045;-63
2022/05/05 06:59:10;;;;;;;21.60;11.75;;;;;;;;;;5010392;28;20404;-63
2022/05/05 07:01:54;;;;;;;21.98;12.63;;;;;;;;;;5010679;28;20049;-62
2022/05/05 07:07:13;;;;;;;22.20;11.65;;;;;;;;;;5010787;28;20096;-61
2022/05/05 07:12:25;;;;;;;21.27;10.55;;;;;;;;;;5010270;28;20046;-62
2022/05/05 07:14:51;;;;;;;20.95;11.13;;;;;;;;;;5008179;28;20461;-64
2022/05/05 07:17:17;;;;;;;21.00;11.20;;;;;;;;;;5009033;28;20029;-64
2022/05/05 07:19:43;;;;;;;15.73;10.30;;;;;;;;;;5007822;28;20044;-64
2022/05/05 07:22:09;;;;;;;17.60;8.75;;;;;;;;;;5006716;28;20096;-64
2022/05/05 07:24:35;;;;;;;14.30;8.60;;;;;;;;;;5003059;28;20037;-63
2022/05/05 07:27:02;;;;;;;15.75;8.88;;;;;;;;;;5007553;28;20133;-63
2022/05/05 07:29:28;;;;;;;19.88;9.63;;;;;;;;;;5010979;28;20046;-63
2022/05/05 07:31:56;;;;;;;19.45;8.90;;;;;;;;;;5008212;28;20034;-63
2022/05/05 07:34:22;;;;;;;18.55;8.50;;;;;;;;;;5008578;28;20054;-63
2022/05/05 07:36:48;;;;;;;15.75;8.82;;;;;;;;;;5007044;28;20492;-65
2022/05/05 07:39:15;;;;;;;21.25;8.57;;;;;;;;;;5003534;28;20124;-64
2022/05/05 07:41:41;;;;;;;21.17;10.45;;;;;;;;;;5011007;28;20037;-65
2022/05/05 07:44:07;;;;;;;16.75;8.52;;;;;;;;;;5013537;28;20073;-66
2022/05/05 07:46:34;;;;;;;16.58;7.80;;;;;;;;;;5009083;28;20957;-64
2022/05/05 07:49:01;;;;;;;14.93;6.97;;;;;;;;;;5011939;28;20034;-65
2022/05/05 07:51:28;;;;;;;15.20;6.53;;;;;;;;;;5013270;28;20540;-63
2022/05/05 07:56:39;;;;;;;12.25;6.00;;;;;;;;;;5012134;28;20048;-65
2022/05/05 07:59:05;;;;;;;15.65;6.75;;;;;;;;;;5012879;28;20041;-63
2022/05/05 08:01:31;;;;;;;18.63;7.60;;;;;;;;;;5012005;28;20042;-64
2022/05/05 08:03:57;;;;;;;12.55;6.57;;;;;;;;;;5012746;28;20072;-64
2022/05/05 08:06:23;;;;;;;16.85;7.40;;;;;;;;;;5012609;28;20070;-64
2022/05/05 08:08:49;;;;;;;17.70;7.43;;;;;;;;;;5013543;28;20107;-64
2022/05/05 08:11:15;;;;;;;15.10;6.72;;;;;;;;;;5012121;28;20045;-63
2022/05/05 08:13:41;;;;;;;15.85;7.28;;;;;;;;;;5013285;28;20480;-64
2022/05/05 08:16:07;;;;;;;15.88;6.28;;;;;;;;;;5013306;28;20601;-65
2022/05/05 08:18:33;;;;;;;16.10;7.03;;;;;;;;;;5012744;28;20044;-64
2022/05/05 08:20:59;;;;;;;16.80;7.05;;;;;;;;;;5011243;28;20045;-65
2022/05/05 08:23:26;;;;;;;9.90;6.10;;;;;;;;;;5011260;28;20131;-63
2022/05/05 08:28:40;;;;;;;12.35;6.32;;;;;;;;;;5012928;28;20466;-65
2022/05/05 08:31:07;;;;;;;14.07;6.78;;;;;;;;;;5013052;28;20096;-65
2022/05/05 08:33:34;;;;;;;13.25;7.45;;;;;;;;;;5011882;28;20053;-65
2022/05/05 08:36:00;;;;;;;11.65;6.00;;;;;;;;;;5013114;28;20069;-65
2022/05/05 08:38:26;;;;;;;13.45;6.43;;;;;;;;;;5011408;28;20056;-64
2022/05/05 08:40:53;;;;;;;12.70;6.25;;;;;;;;;;5011644;28;20041;-65
2022/05/05 08:43:19;;;;;;;10.80;6.05;;;;;;;;;;5012340;28;20433;-64
2022/05/05 08:45:48;;;;;;;12.05;5.80;;;;;;;;;;5011609;28;20069;-64
2022/05/05 08:48:14;;;;;;;12.85;6.22;;;;;;;;;;5011820;28;20044;-64
2022/05/05 08:50:41;;;;;;;12.45;6.78;;;;;;;;;;5012558;28;20045;-64
2022/05/05 08:53:08;;;;;;;11.45;6.60;;;;;;;;;;5012457;28;20044;-64
2022/05/05 08:55:34;;;;;;;12.82;6.15;;;;;;;;;;5010060;28;20125;-63
2022/05/05 08:58:01;;;;;;;14.30;6.28;;;;;;;;;;5011018;28;20038;-65
2022/05/05 09:00:27;;;;;;;10.90;6.15;;;;;;;;;;5012457;28;20042;-66
2022/05/05 09:03:00;;;;;;;13.57;6.13;;;;;;;;;;5010828;28;20042;-63
2022/05/05 09:05:44;;;;;;;10.35;6.97;;;;;;;;;;5012278;28;20062;-64
2022/05/05 09:08:14;;;;;;;12.40;5.68;;;;;;;;;;5011825;28;20054;-65
2022/05/05 09:10:44;;;;;;;10.23;6.05;;;;;;;;;;5010187;28;20041;-65
2022/05/05 09:13:10;;;;;;;10.15;6.80;;;;;;;;;;5010760;28;20041;-65
2022/05/05 09:15:37;;;;;;;13.60;7.35;;;;;;;;;;5012405;28;20379;-64
2022/05/05 09:18:15;;;;;;;11.02;6.15;;;;;;;;;;5011367;28;20436;-64
2022/05/05 09:20:42;;;;;;;16.88;7.72;;;;;;;;;;5011860;28;20045;-65
2022/05/05 09:23:08;;;;;;;16.38;7.25;;;;;;;;;;5012054;28;20037;-65
2022/05/05 09:25:47;;;;;;;13.05;7.03;;;;;;;;;;5010682;28;20038;-64
2022/05/05 09:28:20;;;;;;;11.93;6.95;;;;;;;;;;5011744;28;20048;-65
2022/05/05 09:30:50;;;;;;;10.65;6.43;;;;;;;;;;4999693;28;20045;-64
2022/05/05 09:33:36;;;;;;;16.00;7.25;;;;;;;;;;5012433;28;20046;-64
2022/05/05 09:36:04;;;;;;;13.98;7.03;;;;;;;;;;5011072;28;20048;-63
2022/05/05 09:38:48;;;;;;;16.38;6.68;;;;;;;;;;5010789;28;20070;-63
2022/05/05 09:41:14;;;;;;;12.50;6.78;;;;;;;;;;5011353;28;20046;-65
2022/05/05 09:43:40;;;;;;;13.65;7.03;;;;;;;;;;5011366;28;20045;-63
2022/05/05 09:46:25;;;;;;;14.25;7.10;;;;;;;;;;5009865;28;20385;-63
2022/05/05 09:48:52;;;;;;;9.80;6.43;;;;;;;;;;5010000;28;20050;-63
2022/05/05 09:51:21;;;;;;;14.20;7.35;;;;;;;;;;5010846;28;20038;-63
2022/05/05 09:59:25;;;;;;;11.57;6.82;;;;;;;;;;5011192;28;20041;-65
2022/05/05 10:01:54;;;;;;;9.02;6.40;;;;;;;;;;5010437;28;20054;-64
2022/05/05 10:04:23;;;;;;;9.73;6.63;;;;;;;;;;5011321;28;20074;-63
2022/05/05 10:06:50;;;;;;;12.90;7.07;;;;;;;;;;5010502;28;20157;-65
2022/05/05 10:09:17;;;;;;;12.02;7.13;;;;;;;;;;5009116;28;20049;-65
2022/05/05 10:11:43;;;;;;;14.32;7.32;;;;;;;;;;5011348;28;20091;-65
2022/05/05 10:14:10;;;;;;;11.55;6.85;;;;;;;;;;5010938;28;20433;-64
2022/05/05 10:16:36;;;;;;;9.02;6.35;;;;;;;;;;5009978;28;20091;-65
2022/05/05 10:19:04;;;;;;;13.07;7.10;;;;;;;;;;5011054;28;20042;-66
2022/05/05 10:21:49;;;;;;;9.68;6.63;;;;;;;;;;5011136;28;20508;-65
2022/05/05 10:24:17;;;;;;;11.55;6.35;;;;;;;;;;5010050;28;20046;-65
2022/05/05 10:26:49;;;;;;;15.52;7.13;;;;;;;;;;5009883;28;20046;-65
2022/05/05 10:29:34;;;;;;;11.90;7.28;;;;;;;;;;5010648;28;20042;-64
2022/05/05 10:32:06;;;;;;;11.63;6.60;;;;;;;;;;5010179;28;20045;-65
2022/05/05 10:34:32;;;;;;;11.18;5.75;;;;;;;;;;5010760;28;20057;-65
2022/05/05 10:37:02;;;;;;;9.85;5.97;;;;;;;;;;5010480;28;20038;-65
2022/05/05 10:39:45;;;;;;;7.45;6.20;;;;;;;;;;5010084;28;20041;-65
2022/05/05 10:42:13;;;;;;;10.60;6.82;;;;;;;;;;5010347;28;20052;-64
2022/05/05 10:44:59;;;;;;;7.55;5.40;;;;;;;;;;5010385;28;20050;-64
2022/05/05 10:47:25;;;;;;;9.65;6.50;;;;;;;;;;5009881;28;20046;-64
2022/05/05 10:49:53;;;;;;;10.50;5.68;;;;;;;;;;5011566;28;20054;-64
2022/05/05 10:52:22;;;;;;;9.90;6.03;;;;;;;;;;5004510;28;20042;-64
2022/05/05 10:54:50;;;;;;;8.88;5.63;;;;;;;;;;5010625;28;20081;-65
2022/05/05 10:57:25;;;;;;;8.98;6.03;;;;;;;;;;5011391;28;20461;-64
2022/05/05 11:00:10;;;;;;;11.82;6.22;;;;;;;;;;5009685;28;20080;-65
2022/05/05 11:02:55;;;;;;;13.25;6.75;;;;;;;;;;5009454;28;20034;-66
2022/05/05 11:05:21;;;;;;;12.55;6.65;;;;;;;;;;5010006;28;20066;-65
2022/05/05 11:07:49;;;;;;;8.98;5.68;;;;;;;;;;5009955;28;20188;-65
2022/05/05 11:10:33;;;;;;;8.75;5.57;;;;;;;;;;5010155;28;20049;-64
2022/05/05 11:12:59;;;;;;;9.30;5.82;;;;;;;;;;5010469;28;20042;-65
2022/05/05 11:21:33;;;;;;;12.32;6.47;;;;;;;;;;5014356;28;20034;-66
2022/05/05 11:24:00;;;;;;;12.18;6.10;;;;;;;;;;5013206;28;20046;-66
2022/05/05 11:26:26;;;;;;;14.02;6.40;;;;;;;;;;5014165;28;20052;-65
2022/05/05 11:28:52;;;;;;;8.15;5.30;;;;;;;;;;5014553;28;20558;-66
2022/05/05 11:31:19;;;;;;;14.57;7.90;;;;;;;;;;5013471;28;20049;-64
2022/05/05 11:33:53;;;;;;;12.48;6.50;;;;;;;;;;5029420;28;20049;-66
2022/05/05 11:36:19;;;;;;;9.93;6.40;;;;;;;;;;5013908;28;20053;-66
2022/05/05 11:38:45;;;;;;;11.05;7.10;;;;;;;;;;5012972;28;20050;-65
2022/05/05 11:41:11;;;;;;;10.02;6.38;;;;;;;;;;5013677;28;20048;-64
2022/05/05 11:46:24;;;;;;;10.43;6.90;;;;;;;;;;5013792;28;20437;-64
2022/05/05 11:48:54;;;;;;;8.32;6.55;;;;;;;;;;5013635;28;20076;-63
2022/05/05 11:51:25;;;;;;;12.95;7.32;;;;;;;;;;5013186;28;20041;-63
2022/05/05 11:53:58;;;;;;;11.70;7.03;;;;;;;;;;5014006;28;20050;-63
2022/05/05 11:56:24;;;;;;;9.77;7.25;;;;;;;;;;5011488;28;20044;-63
2022/05/05 12:01:41;;;;;;;15.90;7.57;;;;;;;;;;5013647;28;20034;-65
2022/05/05 12:04:10;;;;;;;15.55;6.53;;;;;;;;;;5012508;28;20053;-63
2022/05/05 12:06:37;;;;;;;12.52;7.28;;;;;;;;;;5012017;28;20085;-62
2022/05/05 12:09:03;;;;;;;9.98;6.50;;;;;;;;;;5013426;28;20109;-61
2022/05/05 12:11:29;;;;;;;11.80;6.45;;;;;;;;;;5013350;28;20046;-65
2022/05/05 12:14:11;;;;;;;18.25;7.35;;;;;;;;;;5013033;28;20130;-64
2022/05/05 12:16:38;;;;;;;12.15;7.25;;;;;;;;;;5013130;28;20041;-63
2022/05/05 12:19:13;;;;;;;13.60;6.93;;;;;;;;;;5012179;28;20069;-64
2022/05/05 12:21:51;;;;;;;14.32;5.82;;;;;;;;;;5012663;28;20045;-64
2022/05/05 12:24:19;;;;;;;6.07;4.85;;;;;;;;;;5012979;28;20481;-63
2022/05/05 12:26:45;;;;;;;10.02;5.72;;;;;;;;;;5012145;28;20038;-62
2022/05/05 12:29:17;;;;;;;7.93;5.60;;;;;;;;;;5012415;28;20053;-63
2022/05/05 12:31:55;;;;;;;8.65;5.57;;;;;;;;;;5012585;28;20038;-63
2022/05/05 12:34:28;;;;;;;8.55;5.68;;;;;;;;;;5013349;28;20046;-61
2022/05/05 12:37:13;;;;;;;8.13;5.72;;;;;;;;;;5011857;28;20069;-63
2022/05/05 12:40:08;;;;;;;8.52;5.60;;;;;;;;;;5002250;28;20045;-61
2022/05/05 12:42:38;;;;;;;8.07;5.15;;;;;;;;;;4995420;28;20061;-61
2022/05/05 12:45:06;;;;;;;8.95;5.70;;;;;;;;;;5012579;28;20045;-62
2022/05/05 12:47:32;;;;;;;9.05;5.40;;;;;;;;;;5008825;28;20038;-63
2022/05/05 12:49:58;;;;;;;7.60;5.00;;;;;;;;;;5012678;28;20046;-66
2022/05/05 13:00:50;;;;;;;6.97;5.05;;;;;;;;;;5012021;28;20049;-66
2022/05/05 13:03:18;;;;;;;7.20;4.63;;;;;;;;;;5011907;28;20069;-65
2022/05/05 13:05:46;;;;;;;6.60;4.72;;;;;;;;;;5010689;28;20061;-66
2022/05/05 13:08:12;;;;;;;7.25;5.07;;;;;;;;;;5012350;28;20049;-67
2022/05/05 13:10:38;;;;;;;9.88;4.78;;;;;;;;;;5011827;28;20046;-67
2022/05/05 13:13:04;;;;;;;6.50;4.60;;;;;;;;;;4992663;28;20105;-67
2022/05/05 13:15:31;;;;;;;6.72;4.82;;;;;;;;;;5010476;28;20053;-67
2022/05/05 13:17:57;;;;;;;7.78;5.38;;;;;;;;;;5012659;28;20045;-66
2022/05/05 13:20:23;;;;;;;10.80;5.50;;;;;;;;;;5011539;28;20048;-66
2022/05/05 13:22:49;;;;;;;6.93;4.47;;;;;;;;;;5012167;28;20378;-67
2022/05/05 13:25:15;;;;;;;5.55;4.25;;;;;;;;;;5010705;28;20076;-67
2022/05/05 13:27:41;;;;;;;7.35;3.92;;;;;;;;;;5011573;28;20049;-67
2022/05/05 13:30:07;;;;;;;5.20;4.25;;;;;;;;;;5012618;28;20042;-68
2022/05/05 13:32:34;;;;;;;8.60;4.30;;;;;;;;;;5012464;28;20034;-68
2022/05/05 13:35:00;;;;;;;4.60;3.72;;;;;;;;;;5011602;28;20052;-67
2022/05/05 13:37:26;;;;;;;5.43;4.10;;;;;;;;;;5011149;28;20477;-67
2022/05/05 13:39:52;;;;;;;5.13;4.10;;;;;;;;;;5011969;28;20476;-67
2022/05/05 13:42:18;;;;;;;8.35;5.10;;;;;;;;;;5008833;28;20045;-67
2022/05/05 13:44:45;;;;;;;7.30;4.25;;;;;;;;;;5010786;28;20049;-66
2022/05/05 13:47:12;;;;;;;5.65;4.00;;;;;;;;;;5011202;28;20121;-66
2022/05/05 13:49:39;;;;;;;7.28;4.90;;;;;;;;;;5011759;28;20050;-66
2022/05/05 13:52:05;;;;;;;8.02;4.88;;;;;;;;;;5009566;28;20651;-67
2022/05/05 13:54:31;;;;;;;6.68;4.10;;;;;;;;;;5011571;28;20104;-67
2022/05/05 13:56:57;;;;;;;6.82;4.60;;;;;;;;;;5010629;28;20065;-65
2022/05/05 13:59:23;;;;;;;6.63;3.95;;;;;;;;;;5010421;28;20042;-67
2022/05/05 14:01:49;;;;;;;6.72;4.47;;;;;;;;;;5011421;28;20095;-68
2022/05/05 14:04:15;;;;;;;6.70;3.95;;;;;;;;;;5011654;28;20088;-67
2022/05/05 14:06:41;;;;;;;5.47;3.95;;;;;;;;;;5010440;28;20100;-67
2022/05/05 14:12:10;;;;;;;5.70;4.20;;;;;;;;;;5009296;28;20045;-65
2022/05/05 14:14:36;;;;;;;8.02;4.20;;;;;;;;;;5010704;28;20180;-64
2022/05/05 14:17:03;;;;;;;6.80;4.53;;;;;;;;;;5011273;28;20065;-65
2022/05/05 14:19:29;;;;;;;6.32;4.45;;;;;;;;;;5010519;28;20052;-65
2022/05/05 14:21:57;;;;;;;9.43;4.50;;;;;;;;;;5009806;28;20164;-66
2022/05/05 14:24:23;;;;;;;5.57;4.60;;;;;;;;;;5010070;28;20053;-66
2022/05/05 14:26:49;;;;;;;4.85;3.88;;;;;;;;;;5010482;28;20396;-65
2022/05/05 14:29:15;;;;;;;5.70;4.22;;;;;;;;;;5010464;28;20053;-68
2022/05/05 14:31:41;;;;;;;6.32;3.97;;;;;;;;;;5009797;28;20054;-66
2022/05/05 14:34:09;;;;;;;4.85;3.35;;;;;;;;;;5009834;28;20048;-65
2022/05/05 14:36:35;;;;;;;5.97;4.03;;;;;;;;;;5010253;28;20050;-66
2022/05/05 14:39:01;;;;;;;5.75;4.05;;;;;;;;;;5010814;28;20046;-66
2022/05/05 14:41:27;;;;;;;4.82;4.07;;;;;;;;;;5009138;28;20049;-66
2022/05/05 14:43:53;;;;;;;7.63;5.05;;;;;;;;;;5009846;28;20445;-65
2022/05/05 14:46:20;;;;;;;5.82;4.70;;;;;;;;;;5010554;28;20129;-65
2022/05/05 14:48:46;;;;;;;6.38;4.07;;;;;;;;;;5012005;28;20046;-66
2022/05/05 14:51:12;;;;;;;6.20;3.80;;;;;;;;;;5014575;28;20054;-67
2022/05/05 14:53:38;;;;;;;6.10;4.18;;;;;;;;;;5015144;28;20376;-67
2022/05/05 14:56:05;;;;;;;7.05;3.97;;;;;;;;;;5011731;28;20034;-68
2022/05/05 14:58:31;;;;;;;8.77;5.13;;;;;;;;;;5013806;28;20108;-68
2022/05/05 15:00:57;;;;;;;7.40;4.75;;;;;;;;;;5014919;28;20037;-67
2022/05/05 15:03:23;;;;;;;6.45;4.00;;;;;;;;;;5014457;28;20045;-67
2022/05/05 15:05:49;;;;;;;4.85;3.42;;;;;;;;;;5014154;28;20074;-67
2022/05/05 15:08:17;;;;;;;7.95;4.32;;;;;;;;;;5015003;28;20049;-67
2022/05/05 15:10:43;;;;;;;7.18;5.28;;;;;;;;;;5015149;28;20473;-69
2022/05/05 15:13:10;;;;;;;7.78;4.50;;;;;;;;;;5013908;28;20077;-67
2022/05/05 15:15:36;;;;;;;7.32;4.50;;;;;;;;;;5014782;28;20595;-68
2022/05/05 15:18:05;;;;;;;8.63;4.57;;;;;;;;;;5014783;28;20042;-68
2022/05/05 15:20:31;;;;;;;5.88;3.85;;;;;;;;;;5014408;28;20045;-68
2022/05/05 15:22:57;;;;;;;8.90;4.35;;;;;;;;;;5014260;28;20433;-68
2022/05/05 15:25:24;;;;;;;6.18;4.22;;;;;;;;;;5014761;28;20046;-68